Terminal Aerodrome Forecast
Issued by NWS Charleston, WV

Current Version | Previous Version | Graphics & Text | Print | Product List | Glossary On
Versions: 1 2 3 4 5 6 7 8 9 10 11 12 13 14 15 16 17 18
000
FTUS41 KRLX 250800 AAA
TAFCRW
TAF AMD
KCRW 250804Z 2508/2606 25009KT P6SM SCT025 BKN045
      TEMPO 2511/2514 BKN025
     FM251400 25010G15KT P6SM OVC035
     FM251700 24008KT P6SM BKN035
     FM252300 VRB03KT P6SM SCT045
     FM260200 00000KT P6SM SCT200=

USA.gov is the U.S. government's official web portal to all federal, state and local government web resources and services.